Time;durP1;ratioP1;P1;durP2;ratioP2;P2;SDS_P1;SDS_P2;PMS_P1;PMS_P2;Temp;Humidity;BMP_temperature;BMP_pressure;BME280_temperature;BME280_humidity;BME280_pressure;Samples;Min_cycle;Max_cycle;Signal;HPM_P1;HPM_P2
2023/09/15 00:00:17;;;;;;;0.30;0.30;;;27.00;55.40;;;27.52;40.93;95435.59;5078011;28;20218;-21
2023/09/15 00:02:45;;;;;;;0.30;0.30;;;27.00;55.60;;;27.50;40.94;95439.66;5078090;28;20501;-21
2023/09/15 00:05:15;;;;;;;0.30;0.30;;;27.00;55.60;;;27.51;40.37;95439.38;5076749;28;20280;-21
2023/09/15 00:07:42;;;;;;;0.35;0.35;;;27.00;55.50;;;27.49;41.00;95438.88;5077700;28;20279;-21
2023/09/15 00:10:11;;;;;;;0.40;0.40;;;27.00;55.60;;;27.47;40.70;95436.44;5077889;28;20252;-21
2023/09/15 00:12:42;;;;;;;0.30;0.30;;;27.00;55.60;;;27.48;40.89;95438.06;5077409;28;20229;-21
2023/09/15 00:15:10;;;;;;;0.30;0.30;;;27.00;55.60;;;27.47;40.39;95441.03;5077454;28;20257;-21
2023/09/15 00:17:40;;;;;;;0.30;0.30;;;27.00;55.50;;;27.43;40.83;95434.63;5077483;28;20245;-21
2023/09/15 00:20:14;;;;;;;0.30;0.30;;;27.00;55.10;;;27.36;39.79;95434.16;5077670;28;20234;-21
2023/09/15 00:22:48;;;;;;;0.30;0.30;;;26.90;54.70;;;27.33;40.58;95440.88;5077695;28;20180;-23
2023/09/15 00:25:20;;;;;;;0.30;0.30;;;26.90;55.20;;;27.29;40.22;95445.25;5077473;28;20191;-21
2023/09/15 00:27:50;;;;;;;0.35;0.35;;;26.90;55.20;;;27.27;40.94;95439.34;5077350;28;20183;-22
2023/09/15 00:30:19;;;;;;;0.40;0.40;;;26.80;55.20;;;27.23;40.29;95443.69;5077166;28;20195;-22
2023/09/15 00:32:48;;;;;;;0.32;0.32;;;26.80;54.90;;;27.17;40.06;95446.44;5077191;28;20685;-21
2023/09/15 00:35:18;;;;;;;0.30;0.30;;;26.80;54.70;;;27.11;40.33;95444.88;5076469;28;20286;-21
2023/09/15 00:37:48;;;;;;;0.30;0.30;;;26.70;54.90;;;27.09;40.88;95443.56;5077432;28;20188;-22
2023/09/15 00:40:18;;;;;;;0.30;0.30;;;26.70;55.30;;;27.05;40.75;95432.56;5077056;28;20216;-21
2023/09/15 00:42:48;;;;;;;0.30;0.30;;;26.70;55.60;;;27.05;40.79;95446.03;5077306;28;20192;-21
2023/09/15 00:45:19;;;;;;;0.32;0.32;;;26.60;55.60;;;27.05;40.75;95450.59;5076506;28;20293;-22
2023/09/15 00:47:56;;;;;;;0.30;0.30;;;26.60;55.70;;;27.02;40.86;95437.72;5077162;28;20287;-21
2023/09/15 00:50:31;;;;;;;0.30;0.30;;;26.60;55.90;;;27.05;41.25;95432.56;5077067;28;20192;-21
2023/09/15 00:53:10;;;;;;;0.30;0.30;;;26.60;56.00;;;27.04;41.11;95433.66;5077161;28;20171;-21
2023/09/15 00:55:38;;;;;;;0.30;0.30;;;26.60;56.00;;;27.07;41.36;95430.38;5076776;28;20180;-22
2023/09/15 00:58:11;;;;;;;0.30;0.30;;;26.60;55.90;;;27.06;41.56;95434.19;5075728;28;20277;-21
2023/09/15 01:00:43;;;;;;;0.30;0.30;;;26.60;56.00;;;27.05;41.47;95435.25;5076223;28;20188;-25
2023/09/15 01:03:18;;;;;;;0.30;0.30;;;26.60;55.90;;;27.03;41.31;95429.34;5076862;28;20564;-21
2023/09/15 01:05:45;;;;;;;0.30;0.30;;;26.60;57.20;;;27.03;41.14;95436.63;5060053;28;20611;-21
2023/09/15 01:08:12;;;;;;;0.30;0.30;;;26.60;55.90;;;27.04;41.21;95435.53;5076478;28;20653;-21
2023/09/15 01:10:39;;;;;;;0.32;0.32;;;26.60;55.90;;;27.01;41.26;95434.19;5076369;28;20192;-21
2023/09/15 01:13:07;;;;;;;0.30;0.30;;;26.60;55.80;;;27.00;40.96;95430.72;5076352;28;20292;-22
2023/09/15 01:15:43;;;;;;;0.30;0.30;;;26.60;55.80;;;26.98;41.30;95434.78;5075188;28;20208;-21
2023/09/15 01:18:26;;;;;;;0.30;0.30;;;26.60;55.90;;;26.95;41.07;95438.03;5076571;28;20191;-22
2023/09/15 01:21:30;;;;;;;0.32;0.32;;;26.50;55.90;;;26.92;41.03;95430.53;5075335;28;20211;-21
2023/09/15 01:24:20;;;;;;;0.30;0.30;;;26.50;55.60;;;26.89;41.07;95436.47;5076213;28;20263;-21
2023/09/15 01:27:26;;;;;;;0.30;0.30;;;26.50;55.80;;;26.84;41.55;95438.13;5075318;28;20194;-23
2023/09/15 01:29:56;;;;;;;0.30;0.30;;;26.50;55.90;;;26.86;41.29;95437.84;5076397;28;20513;-21
2023/09/15 01:32:26;;;;;;;0.30;0.30;;;26.50;56.00;;;26.84;41.40;95435.44;5075588;28;20206;-22
2023/09/15 01:34:53;;;;;;;0.30;0.30;;;26.50;56.00;;;26.81;41.00;95429.81;5075450;28;20599;-21
2023/09/15 01:37:21;;;;;;;0.30;0.30;;;26.40;55.90;;;26.81;41.64;95436.00;5092061;28;20223;-22
2023/09/15 01:39:50;;;;;;;0.30;0.30;;;26.40;56.00;;;26.81;41.22;95436.00;5076140;28;20191;-22
2023/09/15 01:42:17;;;;;;;0.30;0.30;;;26.40;55.70;;;26.75;40.69;95431.75;5076263;28;20235;-22
2023/09/15 01:44:44;;;;;;;0.35;0.35;;;26.40;55.60;;;26.71;40.72;95427.16;5075967;28;20249;-21
2023/09/15 01:47:16;;;;;;;0.50;0.50;;;26.40;55.70;;;26.61;40.62;95423.50;5075719;28;20244;-21
2023/09/15 01:49:44;;;;;;;0.30;0.30;;;26.30;55.20;;;26.59;41.14;95428.34;5075721;28;20199;-22
2023/09/15 01:52:13;;;;;;;0.30;0.30;;;26.30;55.70;;;26.59;41.54;95433.72;5074584;28;20658;-22
2023/09/15 01:54:40;;;;;;;0.40;0.40;;;26.30;56.00;;;26.58;41.61;95425.94;5075587;28;20187;-21
2023/09/15 01:57:07;;;;;;;0.40;0.40;;;26.20;56.00;;;26.58;41.63;95425.94;5074707;28;20234;-22
2023/09/15 01:59:35;;;;;;;0.30;0.30;;;26.20;56.00;;;26.58;41.21;95424.03;5074511;28;20299;-21
2023/09/15 02:02:03;;;;;;;0.40;0.40;;;26.20;55.90;;;26.59;41.39;95427.56;5074510;28;20239;-21
2023/09/15 02:04:32;;;;;;;0.30;0.30;;;26.20;56.00;;;26.56;41.17;95426.22;5075661;28;20549;-21
2023/09/15 02:06:59;;;;;;;0.30;0.30;;;26.20;56.20;;;26.57;41.33;95422.44;5074426;28;20276;-21
2023/09/15 02:09:26;;;;;;;0.30;0.30;;;26.20;56.20;;;26.56;40.98;95423.53;5075608;28;20214;-21
2023/09/15 02:11:54;;;;;;;0.30;0.30;;;26.20;57.30;;;26.51;41.47;95413.63;5074835;28;20219;-21
2023/09/15 02:14:21;;;;;;;0.30;0.30;;;26.20;57.40;;;26.51;41.35;95427.06;5074206;28;20216;-21
2023/09/15 02:16:48;;;;;;;0.40;0.40;;;26.10;56.20;;;26.50;41.56;95417.41;5074419;28;20214;-21
2023/09/15 02:19:16;;;;;;;0.30;0.30;;;26.10;56.40;;;26.52;41.76;95426.00;5075201;28;20190;-22
2023/09/15 02:21:43;;;;;;;0.30;0.30;;;26.20;56.40;;;26.53;41.45;95421.41;5075178;28;20693;-21
2023/09/15 02:24:10;;;;;;;0.30;0.30;;;26.10;56.30;;;26.53;41.67;95421.41;5075244;28;20223;-21
2023/09/15 02:26:39;;;;;;;0.30;0.30;;;26.10;56.40;;;26.51;41.82;95419.00;5075135;28;20653;-21
2023/09/15 02:29:06;;;;;;;0.30;0.30;;;26.10;56.50;;;26.50;41.53;95405.81;5075630;28;20277;-22
2023/09/15 02:31:33;;;;;;;0.30;0.30;;;26.10;56.30;;;26.51;41.67;95418.19;5074013;28;20227;-22
2023/09/15 02:34:01;;;;;;;0.30;0.30;;;26.10;56.40;;;26.52;41.60;95417.94;5075340;28;20190;-22
2023/09/15 02:36:28;;;;;;;0.40;0.40;;;26.20;56.50;;;26.54;41.54;95425.72;5074043;28;20197;-21
2023/09/15 02:38:55;;;;;;;0.30;0.30;;;26.10;56.40;;;26.50;41.33;95419.25;5074936;28;20190;-21
2023/09/15 02:41:22;;;;;;;0.20;0.20;;;26.10;56.40;;;26.52;42.12;95417.09;5075527;28;20258;-22
2023/09/15 02:43:49;;;;;;;0.40;0.40;;;26.20;56.50;;;26.52;41.84;95420.63;5074098;28;20544;-21
2023/09/15 02:46:16;;;;;;;0.30;0.30;;;26.20;56.40;;;26.52;41.66;95427.88;5073872;28;20599;-21
2023/09/15 02:48:44;;;;;;;0.30;0.30;;;26.20;56.40;;;26.51;42.13;95408.25;5073913;28;20204;-22
2023/09/15 02:51:12;;;;;;;0.22;0.22;;;26.20;56.60;;;26.54;41.49;95423.00;5074723;28;20258;-21
2023/09/15 02:53:40;;;;;;;0.50;0.50;;;26.20;56.40;;;26.53;41.82;95421.41;5074699;28;20200;-21
2023/09/15 02:56:08;;;;;;;0.38;0.38;;;26.20;56.50;;;26.52;42.04;95417.09;5075542;28;20681;-20
2023/09/15 02:58:36;;;;;;;0.30;0.30;;;26.20;56.40;;;26.52;41.94;95420.63;5074077;28;20253;-21
2023/09/15 03:01:13;;;;;;;0.32;0.32;;;26.20;56.40;;;26.51;42.22;95416.31;5073844;28;20588;-21
2023/09/15 03:03:44;;;;;;;0.50;0.50;;;26.20;56.40;;;26.52;41.37;95417.94;5057634;28;20722;-21
2023/09/15 03:06:12;;;;;;;0.40;0.40;;;26.20;56.40;;;26.52;41.58;95417.09;5073631;28;20224;-21
2023/09/15 03:08:39;;;;;;;0.30;0.30;;;26.20;56.30;;;26.50;41.84;95409.31;5073730;28;20261;-21
2023/09/15 03:11:16;;;;;;;0.30;0.30;;;26.20;56.40;;;26.50;42.01;95411.19;5073643;28;20197;-21
2023/09/15 03:13:44;;;;;;;0.35;0.35;;;26.20;56.40;;;26.51;41.55;95415.50;5073681;28;20250;-21
2023/09/15 03:16:12;;;;;;;0.30;0.30;;;26.20;56.30;;;26.49;41.41;95412.31;5074107;28;20207;-21
2023/09/15 03:18:42;;;;;;;0.30;0.30;;;26.20;56.30;;;26.48;41.54;95408.00;5074474;28;20252;-21
2023/09/15 03:21:10;;;;;;;0.30;0.30;;;26.20;56.30;;;26.45;41.90;95403.16;5073624;28;20272;-21
2023/09/15 03:23:41;;;;;;;0.30;0.30;;;26.20;56.30;;;26.47;41.77;95403.69;5077495;28;20189;-21
2023/09/15 03:26:08;;;;;;;0.40;0.40;;;26.10;56.30;;;26.47;41.87;95407.19;5077845;28;20189;-22
2023/09/15 03:28:38;;;;;;;0.32;0.32;;;26.10;56.30;;;26.46;42.07;95408.25;5077435;28;20227;-21
2023/09/15 03:31:05;;;;;;;0.32;0.32;;;26.10;56.40;;;26.45;42.04;95400.47;5077316;28;20657;-22
2023/09/15 03:33:32;;;;;;;0.30;0.30;;;26.10;56.40;;;26.45;41.68;95403.16;5078329;28;20637;-22
2023/09/15 03:36:00;;;;;;;0.40;0.40;;;26.10;56.30;;;26.43;41.79;95402.66;5078137;28;20195;-22
2023/09/15 03:38:28;;;;;;;0.30;0.30;;;26.10;56.30;;;26.41;41.54;95399.44;5094096;28;20207;-21
2023/09/15 03:40:56;;;;;;;0.40;0.40;;;26.10;56.30;;;26.40;41.88;95392.47;5077743;28;20205;-21
2023/09/15 03:43:25;;;;;;;0.30;0.30;;;26.10;56.30;;;26.42;41.75;95406.44;5077106;28;20702;-21
2023/09/15 03:45:52;;;;;;;0.30;0.30;;;26.10;56.40;;;26.39;41.70;95401.59;5078476;28;20206;-21
2023/09/15 03:48:20;;;;;;;0.30;0.30;;;26.10;56.20;;;26.34;41.65;95397.88;5077097;28;20233;-23
2023/09/15 03:50:48;;;;;;;0.47;0.47;;;26.10;56.30;;;26.33;41.50;95388.19;5077068;28;20213;-22
2023/09/15 03:53:16;;;;;;;0.30;0.30;;;26.10;56.50;;;26.33;41.61;95387.38;5077870;28;20214;-21
2023/09/15 03:55:43;;;;;;;0.40;0.40;;;26.00;56.30;;;26.32;42.11;95383.91;5078058;28;20224;-22
2023/09/15 03:58:10;;;;;;;0.30;0.30;;;26.10;56.40;;;26.32;41.94;95391.19;5076872;28;20252;-21
2023/09/15 04:00:38;;;;;;;0.30;0.30;;;26.10;56.30;;;26.32;41.84;95391.19;5076839;28;20206;-21
2023/09/15 04:03:05;;;;;;;0.32;0.32;;;26.00;56.20;;;26.30;41.58;95390.66;5076733;28;20213;-21
2023/09/15 04:05:34;;;;;;;0.40;0.40;;;26.00;56.20;;;26.27;41.78;95381.25;5060137;28;20261;-21
2023/09/15 04:08:02;;;;;;;0.28;0.28;;;26.00;56.30;;;26.29;41.90;95386.34;5076713;28;20207;-22
2023/09/15 04:10:29;;;;;;;0.30;0.30;;;26.00;56.40;;;26.27;41.89;95389.31;5077874;28;20190;-21
2023/09/15 04:12:56;;;;;;;0.30;0.30;;;26.00;56.40;;;26.27;41.78;95386.63;5077300;28;20281;-21
2023/09/15 04:15:23;;;;;;;0.38;0.38;;;26.00;56.40;;;26.27;41.95;95397.41;5076464;28;20221;-22
2023/09/15 04:17:50;;;;;;;0.30;0.30;;;26.00;56.30;;;26.25;41.69;95398.75;5093408;28;20257;-22
2023/09/15 04:20:18;;;;;;;0.30;0.30;;;26.00;56.40;;;26.23;41.62;95395.53;5076472;28;20633;-22
2023/09/15 04:23:01;;;;;;;0.38;0.38;;;25.90;56.40;;;26.23;42.04;95393.63;5076513;28;20232;-22
2023/09/15 04:25:28;;;;;;;0.40;0.40;;;25.90;56.30;;;26.21;41.81;95404.69;5076261;28;20629;-22
2023/09/15 04:27:56;;;;;;;0.30;0.30;;;25.90;56.20;;;26.21;42.09;95395.81;5077512;28;20587;-22
2023/09/15 04:30:23;;;;;;;0.30;0.30;;;25.90;56.30;;;26.23;41.83;95415.16;5076316;28;20202;-22
2023/09/15 04:32:55;;;;;;;0.30;0.30;;;25.90;56.30;;;26.20;41.93;95403.06;5093056;28;20313;-21
2023/09/15 04:35:22;;;;;;;0.40;0.40;;;25.90;56.30;;;26.18;41.95;95415.19;5076185;28;20665;-22
2023/09/15 04:37:50;;;;;;;0.30;0.30;;;25.90;56.30;;;26.19;42.06;95403.34;5076538;28;20261;-22
2023/09/15 04:40:17;;;;;;;0.20;0.20;;;25.90;56.30;;;26.18;42.00;95407.94;5093013;28;20722;-22
2023/09/15 04:42:45;;;;;;;0.30;0.30;;;25.90;56.40;;;26.17;41.66;95409.03;5076083;28;20274;-24
2023/09/15 04:45:12;;;;;;;0.30;0.30;;;25.90;56.30;;;26.18;41.84;95412.50;5075895;28;20214;-22
2023/09/15 04:47:40;;;;;;;0.30;0.30;;;25.90;56.30;;;26.16;42.03;95410.09;5076006;28;20204;-22
2023/09/15 04:50:11;;;;;;;0.30;0.30;;;25.90;56.40;;;26.14;41.82;95414.94;5076271;28;20241;-22
2023/09/15 04:52:38;;;;;;;0.30;0.30;;;25.90;56.40;;;26.15;41.68;95413.88;5077022;28;20234;-22
2023/09/15 04:55:05;;;;;;;0.50;0.50;;;25.90;56.30;;;26.13;42.20;95415.22;5075670;28;20207;-22
2023/09/15 04:57:35;;;;;;;0.28;0.28;;;25.90;56.40;;;26.13;41.83;95415.22;5075835;28;20203;-22
2023/09/15 05:00:12;;;;;;;0.30;0.30;;;25.90;56.40;;;26.15;41.73;95418.44;5076155;28;20196;-21
2023/09/15 05:02:45;;;;;;;0.30;0.30;;;25.80;56.40;;;26.12;41.97;95419.00;5075724;28;20653;-22
2023/09/15 05:05:15;;;;;;;0.40;0.40;;;25.80;56.40;;;26.13;41.81;95423.28;5060169;28;20209;-21
2023/09/15 05:07:43;;;;;;;0.30;0.30;;;25.90;56.40;;;26.12;42.20;95414.44;5075600;28;20231;-21
2023/09/15 05:10:11;;;;;;;0.40;0.40;;;25.90;56.50;;;26.10;41.80;95413.09;5075921;28;20204;-22
2023/09/15 05:12:38;;;;;;;0.50;0.50;;;25.90;56.50;;;26.09;41.95;95414.19;5075221;28;20236;-22
2023/09/15 05:15:08;;;;;;;0.30;0.30;;;25.80;56.50;;;26.10;41.99;95421.97;5076572;28;20222;-22
2023/09/15 05:17:38;;;;;;;0.30;0.30;;;25.80;56.50;;;26.09;42.10;95420.34;5075331;28;20199;-21
2023/09/15 05:20:06;;;;;;;0.50;0.50;;;25.90;57.80;;;26.09;41.91;95425.72;5092155;28;20214;-22
2023/09/15 05:22:33;;;;;;;0.40;0.40;;;25.80;56.60;;;26.07;42.25;95427.09;5076310;28;20259;-22
2023/09/15 05:25:04;;;;;;;0.40;0.40;;;25.90;56.50;;;26.05;42.21;95420.09;5075204;28;20203;-22
2023/09/15 05:27:32;;;;;;;0.30;0.30;;;25.90;56.60;;;26.08;42.23;95432.19;5075872;28;20250;-22
2023/09/15 05:29:59;;;;;;;0.30;0.30;;;25.80;56.70;;;26.07;42.35;95427.88;5076353;28;20226;-22
2023/09/15 05:32:26;;;;;;;0.35;0.35;;;25.80;56.70;;;26.09;42.27;95427.63;5075012;28;20222;-22
2023/09/15 05:34:54;;;;;;;0.40;0.40;;;25.90;56.80;;;26.08;42.24;95426.81;5075014;28;20634;-22
2023/09/15 05:37:21;;;;;;;0.35;0.35;;;25.80;56.80;;;26.08;42.20;95426.81;5075411;28;20218;-21
2023/09/15 05:39:48;;;;;;;0.30;0.30;;;25.80;56.90;;;26.11;42.43;95434.34;5074987;28;20272;-22
2023/09/15 05:42:15;;;;;;;0.40;0.40;;;25.90;57.00;;;26.13;42.48;95431.34;5074899;28;20276;-22
2023/09/15 05:44:42;;;;;;;0.50;0.50;;;25.90;56.90;;;26.12;42.50;95435.94;5076252;28;20284;-22
2023/09/15 05:47:10;;;;;;;0.30;0.30;;;25.90;56.90;;;26.12;42.62;95435.94;5074513;28;20590;-22
2023/09/15 05:49:37;;;;;;;0.30;0.30;;;25.90;56.90;;;26.14;42.40;95441.03;5075749;28;20207;-22
2023/09/15 05:52:04;;;;;;;0.32;0.32;;;25.90;57.10;;;26.16;42.81;95445.06;5075856;28;20321;-21
2023/09/15 05:54:31;;;;;;;0.30;0.30;;;26.00;57.30;;;26.16;43.08;95441.56;5075894;28;20203;-22
2023/09/15 05:56:59;;;;;;;0.30;0.30;;;26.00;57.20;;;26.18;43.06;95447.47;5076398;28;20547;-21
2023/09/15 05:59:28;;;;;;;0.40;0.40;;;26.00;57.30;;;26.20;42.99;95438.03;5075494;28;20195;-22
2023/09/15 06:01:56;;;;;;;0.30;0.30;;;26.00;57.30;;;26.20;43.07;95438.03;5075559;28;20607;-22
2023/09/15 06:04:23;;;;;;;0.38;0.38;;;26.10;57.30;;;26.23;43.13;95438.56;5074643;28;20195;-22
2023/09/15 06:06:50;;;;;;;0.30;0.30;;;26.10;57.30;;;26.24;43.32;95438.28;5075564;28;20196;-22
2023/09/15 06:09:17;;;;;;;0.30;0.30;;;26.20;57.20;;;26.26;42.79;95440.72;5075647;28;20219;-21
2023/09/15 06:11:45;;;;;;;0.38;0.38;;;26.20;57.30;;;26.28;42.68;95438.53;5074218;28;20593;-22
2023/09/15 06:14:12;;;;;;;0.30;0.30;;;26.20;57.10;;;26.27;42.97;95435.03;5075547;28;20294;-20
2023/09/15 06:16:39;;;;;;;0.40;0.40;;;26.20;57.20;;;26.29;43.02;95437.44;5075226;28;20639;-21
2023/09/15 06:19:07;;;;;;;0.30;0.30;;;26.20;57.10;;;26.30;43.40;95431.78;5074495;28;20571;-22
2023/09/15 06:21:35;;;;;;;0.30;0.30;;;26.20;57.10;;;26.32;42.95;95428.81;5075232;28;20198;-22
2023/09/15 06:24:03;;;;;;;0.30;0.30;;;26.30;57.10;;;26.35;43.24;95434.44;5075185;28;20252;-22
2023/09/15 06:26:32;;;;;;;0.30;0.30;;;26.30;57.10;;;26.34;42.97;95424.78;5075104;28;20198;-21
2023/09/15 06:28:59;;;;;;;0.30;0.30;;;26.30;57.20;;;26.36;43.02;95433.34;5075143;28;20252;-22
2023/09/15 06:31:26;;;;;;;0.30;0.30;;;26.30;57.00;;;26.37;43.18;95420.72;5075073;28;20200;-22
2023/09/15 06:33:53;;;;;;;0.30;0.30;;;26.30;57.10;;;26.41;42.96;95418.28;5074992;28;20228;-21
2023/09/15 06:36:21;;;;;;;0.30;0.30;;;26.40;57.30;;;26.38;43.08;95419.63;5075034;28;20185;-21
2023/09/15 06:38:49;;;;;;;0.30;0.30;;;26.40;57.20;;;26.43;43.19;95429.56;5074949;28;20194;-21
2023/09/15 06:41:16;;;;;;;0.30;0.30;;;26.40;57.00;;;26.44;43.10;95423.91;5073932;28;20279;-21
2023/09/15 06:43:44;;;;;;;0.30;0.30;;;26.40;57.00;;;26.45;43.31;95422.81;5075246;28;20274;-21
2023/09/15 06:46:11;;;;;;;0.35;0.35;;;26.40;57.00;;;26.45;43.41;95425.50;5075068;28;20210;-21
2023/09/15 06:48:38;;;;;;;0.30;0.30;;;26.40;57.00;;;26.47;42.92;95425.22;5074952;28;20218;-22
2023/09/15 06:51:05;;;;;;;0.30;0.30;;;26.50;57.00;;;26.48;42.61;95424.13;5074864;28;20238;-21
2023/09/15 06:53:32;;;;;;;0.30;0.30;;;26.40;56.90;;;26.49;43.29;95418.47;5074810;28;20222;-22
2023/09/15 06:55:59;;;;;;;0.30;0.30;;;26.50;57.00;;;26.50;42.90;95420.09;5073942;28;20278;-22
2023/09/15 06:58:26;;;;;;;0.40;0.40;;;26.50;56.90;;;26.51;43.09;95423.56;5077519;28;20698;-22
2023/09/15 07:00:55;;;;;;;0.30;0.30;;;26.50;56.90;;;26.51;42.86;95413.63;5079258;28;20595;-21
2023/09/15 07:03:24;;;;;;;0.30;0.30;;;26.50;56.90;;;26.52;43.13;95417.09;5078055;28;20201;-21
2023/09/15 07:05:51;;;;;;;0.35;0.35;;;26.50;56.90;;;26.55;42.69;95429.19;5079044;28;20532;-21
2023/09/15 07:08:18;;;;;;;0.32;0.32;;;26.50;58.10;;;26.56;42.83;95428.09;5077885;28;20196;-21
2023/09/15 07:10:50;;;;;;;0.50;0.50;;;26.50;56.80;;;26.55;42.91;95421.94;5077838;28;20293;-21
2023/09/15 07:13:18;;;;;;;0.30;0.30;;;26.50;56.90;;;26.55;43.13;95426.50;5078590;28;20668;-21
2023/09/15 07:15:45;;;;;;;0.30;0.30;;;26.50;56.80;;;26.58;42.93;95428.63;5078948;28;20243;-21
2023/09/15 07:18:13;;;;;;;0.30;0.30;;;26.60;56.90;;;26.57;42.96;95416.25;5079388;28;20507;-21
2023/09/15 07:20:40;;;;;;;0.20;0.20;;;26.50;56.70;;;26.59;42.94;95427.56;5078797;28;20289;-21
2023/09/15 07:23:07;;;;;;;0.30;0.30;;;26.60;56.80;;;26.58;43.13;95417.88;5078778;28;20282;-22
2023/09/15 07:25:34;;;;;;;0.30;0.30;;;26.60;56.80;;;26.62;42.55;95418.91;5079045;28;20237;-21
2023/09/15 07:28:01;;;;;;;0.25;0.25;;;26.50;56.70;;;26.60;42.92;95419.19;5078363;28;20205;-22
2023/09/15 07:30:28;;;;;;;0.20;0.20;;;26.60;56.80;;;26.61;43.01;95409.22;5079000;28;20195;-21
2023/09/15 07:32:56;;;;;;;0.30;0.30;;;26.60;56.70;;;26.63;42.84;95415.94;5078558;28;20287;-21
2023/09/15 07:35:23;;;;;;;0.35;0.35;;;26.60;56.70;;;26.64;42.85;95414.06;5078864;28;20613;-22
2023/09/15 07:37:50;;;;;;;0.30;0.30;;;26.60;56.70;;;26.65;42.71;95407.59;5078367;28;20252;-21
2023/09/15 07:40:18;;;;;;;0.30;0.30;;;26.60;56.70;;;26.67;42.88;95400.03;5078175;28;20657;-22
2023/09/15 07:42:51;;;;;;;0.30;0.30;;;26.60;56.60;;;26.68;42.69;95407.00;5078226;28;20185;-21
2023/09/15 07:45:18;;;;;;;0.30;0.30;;;26.60;56.70;;;26.70;42.79;95404.84;5077201;28;20202;-21
2023/09/15 07:47:46;;;;;;;0.30;0.30;;;26.60;56.60;;;26.70;42.59;95407.53;5078525;28;20208;-21
2023/09/15 07:50:13;;;;;;;0.30;0.30;;;26.60;56.70;;;26.70;42.90;95410.25;5078332;28;20277;-23
2023/09/15 07:52:40;;;;;;;0.32;0.32;;;26.60;56.60;;;26.71;42.44;95400.25;5077902;28;20252;-21
2023/09/15 07:55:08;;;;;;;0.30;0.30;;;26.60;56.60;;;26.73;42.50;95411.56;5077155;28;20202;-21
2023/09/15 07:57:37;;;;;;;0.45;0.45;;;26.70;56.70;;;26.74;42.94;95405.09;5077887;28;20237;-21
2023/09/15 08:00:10;;;;;;;0.30;0.30;;;26.70;56.70;;;26.74;42.54;95408.56;5077859;28;20193;-21
2023/09/15 08:02:38;;;;;;;0.30;0.30;;;26.70;56.50;;;26.77;42.75;95404.53;5078320;28;20593;-21
2023/09/15 08:05:06;;;;;;;0.30;0.30;;;26.70;56.70;;;26.76;42.88;95405.66;5078022;28;20201;-21
2023/09/15 08:07:33;;;;;;;0.30;0.30;;;26.70;56.60;;;26.79;42.70;95403.19;5077030;28;20207;-22
2023/09/15 08:10:01;;;;;;;0.30;0.30;;;26.70;56.70;;;26.79;42.73;95407.75;5077327;28;20195;-21
2023/09/15 08:12:28;;;;;;;0.30;0.30;;;26.70;56.60;;;26.79;42.69;95405.06;5077517;28;20249;-21
2023/09/15 08:14:56;;;;;;;0.30;0.30;;;26.70;56.70;;;26.81;42.85;95406.41;5077620;28;20185;-22
2023/09/15 08:17:23;;;;;;;0.30;0.30;;;26.70;56.70;;;26.82;42.85;95410.69;5077410;28;20189;-22
2023/09/15 08:20:01;;;;;;;0.30;0.30;;;26.70;56.70;;;26.82;42.70;95404.53;5077499;28;20177;-22
2023/09/15 08:22:30;;;;;;;0.30;0.30;;;26.70;56.50;;;26.84;42.77;95402.31;5076606;28;20196;-26
2023/09/15 08:24:58;;;;;;;0.30;0.30;;;26.80;56.60;;;26.85;42.80;95406.63;5077390;28;20201;-22
2023/09/15 08:27:26;;;;;;;0.30;0.30;;;26.80;56.60;;;26.88;42.49;95400.69;5076767;28;20596;-21
2023/09/15 08:29:53;;;;;;;0.30;0.30;;;26.80;56.50;;;26.89;42.85;95399.59;5077289;28;20201;-22
2023/09/15 08:32:21;;;;;;;0.30;0.30;;;26.70;56.50;;;26.89;42.40;95404.19;5077314;28;20195;-23
2023/09/15 08:34:48;;;;;;;0.40;0.40;;;26.80;56.50;;;26.91;42.64;95397.41;5077462;28;20315;-22
2023/09/15 08:37:15;;;;;;;0.28;0.28;;;26.80;56.60;;;26.90;42.96;95401.19;5077113;28;20235;-22
2023/09/15 08:39:42;;;;;;;0.30;0.30;;;26.80;56.60;;;26.92;42.19;95406.31;5077152;28;20519;-22
2023/09/15 08:42:20;;;;;;;0.30;0.30;;;26.80;56.50;;;26.93;42.33;95391.78;5077155;28;20198;-26
2023/09/15 08:44:49;;;;;;;0.35;0.35;;;26.80;56.40;;;26.95;42.59;95398.47;5076649;28;20202;-22
2023/09/15 08:47:18;;;;;;;0.30;0.30;;;26.80;56.50;;;26.97;42.63;95385.50;5076204;28;20196;-22
2023/09/15 08:49:46;;;;;;;0.40;0.40;;;26.90;56.60;;;26.99;42.41;95396.00;5076943;28;20282;-22
2023/09/15 08:52:16;;;;;;;0.30;0.30;;;26.90;56.40;;;26.99;42.47;95391.41;5076401;28;20288;-21
2023/09/15 08:54:45;;;;;;;0.30;0.30;;;26.80;56.30;;;27.00;42.25;95395.72;5077031;28;20219;-22
2023/09/15 08:57:13;;;;;;;0.35;0.35;;;26.90;56.40;;;27.04;42.41;95387.06;5076739;28;20268;-22
2023/09/15 08:59:41;;;;;;;0.22;0.22;;;26.90;56.50;;;27.06;42.48;95382.19;5076991;28;20625;-21
2023/09/15 09:02:12;;;;;;;0.30;0.30;;;26.90;57.70;;;27.04;42.01;95382.50;5076084;28;20189;-21
2023/09/15 09:04:39;;;;;;;0.30;0.30;;;26.90;56.30;;;27.07;42.28;95378.44;5076951;28;20519;-22
2023/09/15 09:07:08;;;;;;;0.30;0.30;;;26.90;56.40;;;27.08;42.64;95385.41;5076642;28;20200;-22
2023/09/15 09:09:38;;;;;;;0.30;0.30;;;26.90;56.20;;;27.09;42.17;95384.34;5076547;28;20211;-22
2023/09/15 09:12:05;;;;;;;0.30;0.30;;;26.90;56.00;;;27.10;42.25;95386.75;5076555;28;20309;-22
2023/09/15 09:14:32;;;;;;;0.30;0.30;;;26.90;56.00;;;27.09;42.23;95376.25;5076693;28;20286;-21
2023/09/15 09:17:01;;;;;;;0.30;0.30;;;27.00;56.80;;;27.09;42.39;95379.75;5076337;28;20189;-21
2023/09/15 09:19:39;;;;;;;0.20;0.20;;;27.00;56.00;;;27.12;42.04;95383.75;5076038;28;20201;-22
2023/09/15 09:22:07;;;;;;;0.30;0.30;;;27.00;55.90;;;27.12;42.04;95389.97;5076148;28;20232;-22
2023/09/15 09:24:37;;;;;;;0.20;0.20;;;27.00;55.90;;;27.14;42.03;95379.69;5076266;28;20206;-22
2023/09/15 09:27:12;;;;;;;0.30;0.30;;;27.00;55.80;;;27.13;41.96;95385.34;5076499;28;20219;-22
2023/09/15 09:29:40;;;;;;;0.30;0.30;;;27.00;55.80;;;27.13;42.03;95388.06;5076072;28;20199;-21
2023/09/15 09:32:13;;;;;;;0.28;0.28;;;27.00;55.80;;;27.14;41.91;95382.38;5076097;28;20197;-22
2023/09/15 09:34:41;;;;;;;0.30;0.30;;;27.00;55.70;;;27.16;41.63;95384.81;5076242;28;20213;-23
2023/09/15 09:37:14;;;;;;;0.30;0.30;;;27.00;55.80;;;27.17;41.32;95375.59;5075882;28;20192;-24
2023/09/15 09:39:42;;;;;;;0.30;0.30;;;27.00;55.70;;;27.18;41.29;95377.22;5075083;28;20224;-22
2023/09/15 09:42:11;;;;;;;0.30;0.30;;;27.00;55.60;;;27.19;41.21;95380.72;5076390;28;20201;-22
2023/09/15 09:44:38;;;;;;;0.30;0.30;;;27.00;56.70;;;27.21;41.51;95383.91;5058524;28;20197;-24
2023/09/15 09:47:09;;;;;;;0.22;0.22;;;27.00;55.50;;;27.20;41.24;95377.75;5074844;28;20211;-22
2023/09/15 09:49:39;;;;;;;0.30;0.30;;;27.00;55.30;;;27.24;41.61;95377.97;5075876;28;20200;-22
2023/09/15 09:52:06;;;;;;;0.30;0.30;;;27.00;55.40;;;27.25;41.60;95382.28;5075696;28;20202;-22
2023/09/15 09:54:34;;;;;;;0.40;0.40;;;27.00;55.30;;;27.25;41.26;95372.28;5075595;28;20243;-21
2023/09/15 09:57:02;;;;;;;0.30;0.30;;;27.00;55.40;;;27.28;40.92;95379.00;5075885;28;20198;-22
2023/09/15 09:59:30;;;;;;;0.22;0.22;;;27.10;55.20;;;27.29;41.20;95372.53;5075638;28;20217;-22
2023/09/15 10:01:57;;;;;;;0.28;0.28;;;27.10;55.30;;;27.31;40.71;95381.13;5075498;28;20197;-22
2023/09/15 10:04:24;;;;;;;0.30;0.30;;;27.10;55.20;;;27.32;41.17;95378.13;5075362;28;20286;-22
2023/09/15 10:06:51;;;;;;;0.30;0.30;;;27.10;55.00;;;27.33;40.89;95373.53;5074587;28;20192;-22
2023/09/15 10:09:19;;;;;;;0.30;0.30;;;27.10;54.90;;;27.33;40.78;95377.06;5074718;28;20195;-22
2023/09/15 10:11:48;;;;;;;0.38;0.38;;;27.10;54.80;;;27.35;40.57;95378.66;5075240;28;20256;-23
2023/09/15 10:14:16;;;;;;;0.20;0.20;;;27.10;54.60;;;27.36;40.54;95372.97;5076024;28;20210;-22
2023/09/15 10:16:46;;;;;;;0.30;0.30;;;27.10;54.50;;;27.39;40.58;95377.00;5074761;28;20263;-22
2023/09/15 10:19:15;;;;;;;0.30;0.30;;;27.10;54.40;;;27.41;40.33;95380.22;5074393;28;20266;-22
2023/09/15 10:21:42;;;;;;;0.32;0.32;;;27.10;54.40;;;27.41;40.24;95375.63;5074363;28;20269;-22
2023/09/15 10:24:11;;;;;;;0.30;0.30;;;27.20;54.50;;;27.42;40.50;95357.59;5075181;28;20201;-22
2023/09/15 10:26:41;;;;;;;0.30;0.30;;;27.20;54.40;;;27.46;40.12;95369.41;5075334;28;20200;-21